createdAt,value
2019-04-16T00:01:50.880Z,82.30
2019-04-16T00:07:08.434Z,81.70
2019-04-16T00:12:27.251Z,82.90
2019-04-16T00:17:26.900Z,84.00
2019-04-16T00:22:32.487Z,85.90
2019-04-16T00:27:32.067Z,86.10
2019-04-16T00:32:32.687Z,87.90
2019-04-16T00:37:32.235Z,87.70
2019-04-16T00:42:31.776Z,88.60
2019-04-16T00:47:31.328Z,90.40
2019-04-16T00:52:30.898Z,90.40
2019-04-16T00:57:30.454Z,91.10
2019-04-16T01:02:29.993Z,91.50
2019-04-16T01:07:29.538Z,92.00
2019-04-16T01:12:29.160Z,92.60
2019-04-16T01:17:28.706Z,93.00
2019-04-16T01:22:28.234Z,93.80
2019-04-16T01:27:34.102Z,94.50
2019-04-16T01:32:51.748Z,94.60
2019-04-16T01:38:10.489Z,95.90
2019-04-16T01:43:10.043Z,95.90
2019-04-16T01:48:10.653Z,96.70
2019-04-16T01:53:10.233Z,96.60
2019-04-16T01:58:09.789Z,96.70
2019-04-16T02:03:09.347Z,97.00
2019-04-16T02:08:08.891Z,97.40
2019-04-16T02:13:09.458Z,97.30
2019-04-16T02:18:10.232Z,97.50
2019-04-16T02:23:13.467Z,97.90
2019-04-16T02:28:12.098Z,97.90
2019-04-16T02:33:11.654Z,98.50
2019-04-16T02:38:13.211Z,97.90
2019-04-16T02:43:12.463Z,98.60
2019-04-16T02:48:16.617Z,98.50
2019-04-16T02:53:39.770Z,97.70
2019-04-16T02:58:46.315Z,98.50
2019-04-16T03:03:50.408Z,98.10
2019-04-16T03:08:50.068Z,98.30
2019-04-16T03:13:52.418Z,98.70
2019-04-16T03:18:55.828Z,98.70
2019-04-16T03:23:55.438Z,99.20
2019-04-16T03:28:55.671Z,99.10
2019-04-16T03:33:56.234Z,99.20
2019-04-16T03:38:55.822Z,99.20
2019-04-16T03:43:55.434Z,99.00
2019-04-16T03:48:56.068Z,98.80
2019-04-16T03:53:56.493Z,99.30
2019-04-16T03:58:56.245Z,99.10
2019-04-16T04:03:57.529Z,99.50
2019-04-16T04:08:57.953Z,99.40
2019-04-16T04:13:57.499Z,99.90
2019-04-16T04:18:57.824Z,99.90
2019-04-16T04:24:00.826Z,99.90
2019-04-16T04:28:59.620Z,99.90
2019-04-16T04:33:59.255Z,99.90
2019-04-16T04:38:58.794Z,99.90
2019-04-16T04:44:04.032Z,99.90
2019-04-16T04:49:00.271Z,99.90
2019-04-16T04:54:00.094Z,99.90
2019-04-16T04:59:02.382Z,99.90
2019-04-16T05:04:27.097Z,99.90
2019-04-16T05:09:29.218Z,99.90
2019-04-16T05:14:27.890Z,99.90
2019-04-16T05:19:28.515Z,99.90
2019-04-16T05:24:29.209Z,99.90
2019-04-16T05:29:29.466Z,99.90
2019-04-16T05:34:29.023Z,99.90
2019-04-16T05:39:29.038Z,99.90
2019-04-16T05:44:33.200Z,99.90
2019-04-16T05:49:29.826Z,99.60
2019-04-16T05:54:44.517Z,99.60
2019-04-16T05:59:43.846Z,99.20
2019-04-16T06:04:43.402Z,98.70
2019-04-16T06:09:44.482Z,98.20
2019-04-16T06:14:53.916Z,97.50
2019-04-16T06:20:10.601Z,96.30
2019-04-16T06:25:28.527Z,95.70
2019-04-16T06:30:37.369Z,95.50
2019-04-16T06:36:01.054Z,95.50
2019-04-16T06:41:04.266Z,95.50
2019-04-16T06:46:19.609Z,94.30
2019-04-16T06:51:44.751Z,94.60
2019-04-16T06:56:56.280Z,93.80
2019-04-16T07:02:27.576Z,93.70
2019-04-16T07:07:46.933Z,93.50
2019-04-16T07:12:48.017Z,92.60
2019-04-16T07:17:47.858Z,92.30
2019-04-16T07:22:47.389Z,91.20
2019-04-16T07:28:03.915Z,89.20
2019-04-16T07:33:24.906Z,87.90
2019-04-16T07:38:43.642Z,86.70
2019-04-16T07:44:08.095Z,85.70
2019-04-16T07:49:14.434Z,83.30
2019-04-16T07:54:27.702Z,82.30
2019-04-16T07:59:32.015Z,82.70
2019-04-16T08:04:29.224Z,80.80
2019-04-16T08:09:30.056Z,77.90
2019-04-16T08:14:29.826Z,74.60
2019-04-16T08:19:36.694Z,72.90
2019-04-16T08:24:34.624Z,74.60
2019-04-16T08:29:34.203Z,72.50
2019-04-16T08:34:35.001Z,69.60
2019-04-16T08:39:36.841Z,68.40
2019-04-16T08:44:36.464Z,65.60
2019-04-16T08:49:36.297Z,67.50
2019-04-16T08:54:35.886Z,63.00
2019-04-16T08:59:35.690Z,60.10
2019-04-16T09:04:35.384Z,57.80
2019-04-16T09:09:49.887Z,56.10
2019-04-16T09:14:55.980Z,54.70
2019-04-16T09:19:57.701Z,48.50
2019-04-16T09:25:13.588Z,49.10
2019-04-16T09:30:37.072Z,47.10
2019-04-16T09:35:44.929Z,44.10
2019-04-16T09:40:54.902Z,42.70
2019-04-16T09:45:54.452Z,41.60
2019-04-16T09:50:55.083Z,40.90
2019-04-16T09:55:54.653Z,41.50
2019-04-16T10:01:02.695Z,40.90
2019-04-16T10:06:05.321Z,40.90
2019-04-16T10:11:06.044Z,38.80
2019-04-16T10:16:05.588Z,39.30
2019-04-16T10:21:05.485Z,38.10
2019-04-16T10:26:05.365Z,36.80
2019-04-16T10:31:04.941Z,36.70
2019-04-16T10:36:06.001Z,35.60
2019-04-16T10:41:19.363Z,35.10
2019-04-16T10:46:25.541Z,34.60
2019-04-16T10:52:02.691Z,34.00
2019-04-16T10:57:10.326Z,34.80
2019-04-16T11:02:43.946Z,35.20
2019-04-16T11:07:44.930Z,34.50
2019-04-16T11:12:44.903Z,34.30
2019-04-16T11:17:45.658Z,33.50
2019-04-16T11:22:45.227Z,32.70
2019-04-16T11:27:44.791Z,34.00
2019-04-16T11:32:44.416Z,34.10
2019-04-16T11:37:44.774Z,32.30
2019-04-16T11:42:45.462Z,32.70
2019-04-16T11:47:48.029Z,33.00
2019-04-16T11:52:46.280Z,31.50
2019-04-16T11:57:46.016Z,33.20
2019-04-16T12:03:03.654Z,33.80
2019-04-16T12:08:29.917Z,32.70
2019-04-16T12:13:48.156Z,32.90
2019-04-16T12:19:12.692Z,33.10
2019-04-16T12:24:28.049Z,33.50
2019-04-16T12:29:41.668Z,31.60
2019-04-16T12:34:57.926Z,32.90
2019-04-16T12:40:10.179Z,33.60
2019-04-16T12:45:38.957Z,33.70
2019-04-16T12:50:59.923Z,32.90
2019-04-16T12:56:17.542Z,34.80
2019-04-16T13:01:33.378Z,31.70
2019-04-16T13:06:59.565Z,31.40
2019-04-16T13:12:21.318Z,31.30
2019-04-16T13:17:41.711Z,32.20
2019-04-16T13:22:45.545Z,31.10
2019-04-16T13:27:47.851Z,31.30
2019-04-16T13:32:46.718Z,31.00
2019-04-16T13:37:46.273Z,32.00
2019-04-16T13:42:45.807Z,32.00
2019-04-16T13:47:46.486Z,31.30
2019-04-16T13:52:46.521Z,31.90
2019-04-16T13:57:58.794Z,30.80
2019-04-16T14:03:02.283Z,31.40
2019-04-16T14:08:01.841Z,30.20
2019-04-16T14:13:01.390Z,31.70
2019-04-16T14:18:01.361Z,32.20
2019-04-16T14:23:00.981Z,31.00
2019-04-16T14:28:03.111Z,30.10
2019-04-16T14:33:02.064Z,29.90
2019-04-16T14:38:01.739Z,29.40
2019-04-16T14:43:01.286Z,29.80
2019-04-16T14:48:00.937Z,30.10
2019-04-16T14:53:00.538Z,29.90
2019-04-16T14:58:10.532Z,29.70
2019-04-16T15:03:31.981Z,29.20
2019-04-16T15:08:37.330Z,28.70
2019-04-16T15:13:43.191Z,29.50
2019-04-16T15:19:00.523Z,28.80
2019-04-16T15:24:21.458Z,29.60
2019-04-16T15:29:47.333Z,28.90
2019-04-16T15:34:48.151Z,29.40
2019-04-16T15:39:54.321Z,29.10
2019-04-16T15:44:58.058Z,29.70
2019-04-16T15:50:11.085Z,30.00
2019-04-16T15:55:29.847Z,29.50
2019-04-16T16:00:53.751Z,29.30
2019-04-16T16:05:58.310Z,29.80
2019-04-16T16:11:00.367Z,29.80
2019-04-16T16:15:59.955Z,29.40
2019-04-16T16:20:59.518Z,29.70
2019-04-16T16:26:00.129Z,30.20
2019-04-16T16:30:59.683Z,30.10
2019-04-16T16:36:00.735Z,30.30
2019-04-16T16:41:00.768Z,30.40
2019-04-16T16:46:31.826Z,30.00
2019-04-16T16:51:31.453Z,29.80
2019-04-16T16:56:46.745Z,29.40
2019-04-16T17:02:08.843Z,29.10
2019-04-16T17:07:07.194Z,28.90
2019-04-16T17:12:08.840Z,29.30
2019-04-16T17:17:14.172Z,28.70
2019-04-16T17:22:14.674Z,28.60
2019-04-16T17:27:14.068Z,29.00
2019-04-16T17:32:15.163Z,29.70
2019-04-16T17:37:14.993Z,30.10
2019-04-16T17:42:15.213Z,31.90
2019-04-16T17:47:32.108Z,31.50
2019-04-16T17:52:29.518Z,32.20
2019-04-16T17:57:47.145Z,32.60
2019-04-16T18:02:54.727Z,33.30
2019-04-16T18:08:03.716Z,33.90
2019-04-16T18:13:08.778Z,34.50
2019-04-16T18:18:19.253Z,34.70
2019-04-16T18:23:30.782Z,34.70
2019-04-16T18:28:35.474Z,35.60
2019-04-16T18:33:42.792Z,36.20
2019-04-16T18:39:03.963Z,36.30
2019-04-16T18:44:29.326Z,36.30
2019-04-16T18:49:29.451Z,37.20
2019-04-16T18:54:29.039Z,37.80
2019-04-16T18:59:28.660Z,38.40
2019-04-16T19:04:28.194Z,39.00
2019-04-16T19:09:27.761Z,38.70
2019-04-16T19:14:27.434Z,39.20
2019-04-16T19:19:27.259Z,38.30
2019-04-16T19:24:28.068Z,38.70
2019-04-16T19:29:27.840Z,38.20
2019-04-16T19:34:27.476Z,38.50
2019-04-16T19:39:27.094Z,38.30
2019-04-16T19:44:27.408Z,38.60
2019-04-16T19:49:27.088Z,38.50
2019-04-16T19:54:26.730Z,38.40
2019-04-16T19:59:26.372Z,38.60
2019-04-16T20:04:25.935Z,38.90
2019-04-16T20:09:25.558Z,39.00
2019-04-16T20:14:25.576Z,38.80
2019-04-16T20:19:25.157Z,38.60
2019-04-16T20:24:24.769Z,39.00
2019-04-16T20:29:24.448Z,39.40
2019-04-16T20:34:24.193Z,39.30
2019-04-16T20:39:23.739Z,39.60
2019-04-16T20:44:24.243Z,39.80
2019-04-16T20:49:23.862Z,39.50
2019-04-16T20:54:24.142Z,39.90
2019-04-16T20:59:23.743Z,40.10
2019-04-16T21:04:23.377Z,40.10
2019-04-16T21:09:22.924Z,40.50
2019-04-16T21:14:22.769Z,39.80
2019-04-16T21:19:24.637Z,40.50
2019-04-16T21:24:24.217Z,40.40
2019-04-16T21:29:33.294Z,40.70
2019-04-16T21:34:36.903Z,40.50
2019-04-16T21:39:41.870Z,40.70
2019-04-16T21:44:44.545Z,40.40
2019-04-16T21:49:45.829Z,40.20
2019-04-16T21:54:44.034Z,40.90
2019-04-16T21:59:43.646Z,40.70
2019-04-16T22:04:45.438Z,40.90
2019-04-16T22:09:44.582Z,41.00
2019-04-16T22:14:44.165Z,41.20
2019-04-16T22:19:53.861Z,41.50
2019-04-16T22:24:44.967Z,41.90
2019-04-16T22:29:47.213Z,41.80
2019-04-16T22:34:45.775Z,42.70
2019-04-16T22:40:10.565Z,42.20
2019-04-16T22:45:29.301Z,42.40
2019-04-16T22:50:28.882Z,42.20
2019-04-16T22:55:28.442Z,42.40
2019-04-16T23:00:34.194Z,42.80
2019-04-16T23:05:33.750Z,42.60
2019-04-16T23:10:33.328Z,42.60
2019-04-16T23:15:33.439Z,42.60
2019-04-16T23:20:36.118Z,42.80
2019-04-16T23:25:34.270Z,43.40
2019-04-16T23:30:33.837Z,43.30
2019-04-16T23:35:33.399Z,43.00
2019-04-16T23:40:32.959Z,42.90
2019-04-16T23:45:44.185Z,43.10
2019-04-16T23:50:49.469Z,43.10
2019-04-16T23:55:59.777Z,43.00
